Aktuell METAR/TAF ESNU/UME

051150Z 15012KT 6000 RA BKN003 OVC006 04/04 Q1009 REDZ=

051130Z 0512/0521 17010KT 8000 -RA OVC003 TEMPO 0512/0521 2000 DZ BR BKN007=
Källa: Luftfartsverket (aro.lfv.se)